sensor_id;sensor_type;location;lat;lon;timestamp;P1;durP1;ratioP1;P2;durP2;ratioP2
80536;SDS011;69867;47.074;15.404;2023-06-10T00:00:40;17.55;;;6.30;;
80536;SDS011;69867;47.074;15.404;2023-06-10T00:03:05;14.00;;;4.90;;
80536;SDS011;69867;47.074;15.404;2023-06-10T00:05:30;13.68;;;5.60;;
80536;SDS011;69867;47.074;15.404;2023-06-10T00:07:56;10.32;;;5.32;;
80536;SDS011;69867;47.074;15.404;2023-06-10T00:10:21;8.77;;;4.35;;
80536;SDS011;69867;47.074;15.404;2023-06-10T00:12:47;10.45;;;5.25;;
80536;SDS011;69867;47.074;15.404;2023-06-10T00:15:12;13.45;;;5.90;;
80536;SDS011;69867;47.074;15.404;2023-06-10T00:17:38;14.25;;;5.63;;
80536;SDS011;69867;47.074;15.404;2023-06-10T00:20:03;13.48;;;5.13;;
80536;SDS011;69867;47.074;15.404;2023-06-10T00:22:31;12.32;;;5.78;;
80536;SDS011;69867;47.074;15.404;2023-06-10T00:24:56;15.20;;;6.35;;
80536;SDS011;69867;47.074;15.404;2023-06-10T00:27:22;14.70;;;6.80;;
80536;SDS011;69867;47.074;15.404;2023-06-10T00:29:47;15.77;;;7.35;;
80536;SDS011;69867;47.074;15.404;2023-06-10T00:32:12;16.75;;;7.72;;
80536;SDS011;69867;47.074;15.404;2023-06-10T00:34:38;11.80;;;7.05;;
80536;SDS011;69867;47.074;15.404;2023-06-10T00:37:03;12.20;;;7.10;;
80536;SDS011;69867;47.074;15.404;2023-06-10T00:39:29;13.57;;;7.43;;
80536;SDS011;69867;47.074;15.404;2023-06-10T00:41:54;12.68;;;6.97;;
80536;SDS011;69867;47.074;15.404;2023-06-10T00:44:19;9.82;;;6.10;;
80536;SDS011;69867;47.074;15.404;2023-06-10T00:46:45;12.85;;;6.05;;
80536;SDS011;69867;47.074;15.404;2023-06-10T00:49:10;9.98;;;6.13;;
80536;SDS011;69867;47.074;15.404;2023-06-10T00:51:36;11.15;;;6.30;;
80536;SDS011;69867;47.074;15.404;2023-06-10T00:54:01;13.80;;;6.43;;
80536;SDS011;69867;47.074;15.404;2023-06-10T00:56:27;18.73;;;6.10;;
80536;SDS011;69867;47.074;15.404;2023-06-10T00:58:52;13.23;;;7.00;;
80536;SDS011;69867;47.074;15.404;2023-06-10T01:01:18;12.85;;;6.60;;
80536;SDS011;69867;47.074;15.404;2023-06-10T01:03:43;13.13;;;6.82;;
80536;SDS011;69867;47.074;15.404;2023-06-10T01:06:14;15.88;;;6.43;;
80536;SDS011;69867;47.074;15.404;2023-06-10T01:09:02;12.57;;;6.18;;
80536;SDS011;69867;47.074;15.404;2023-06-10T01:11:34;12.57;;;6.32;;
80536;SDS011;69867;47.074;15.404;2023-06-10T01:14:05;17.30;;;6.57;;
80536;SDS011;69867;47.074;15.404;2023-06-10T01:16:32;15.48;;;5.82;;
80536;SDS011;69867;47.074;15.404;2023-06-10T01:18:58;15.65;;;5.72;;
80536;SDS011;69867;47.074;15.404;2023-06-10T01:21:23;11.18;;;6.40;;
80536;SDS011;69867;47.074;15.404;2023-06-10T01:23:48;9.32;;;5.82;;
80536;SDS011;69867;47.074;15.404;2023-06-10T01:26:14;15.30;;;6.47;;
80536;SDS011;69867;47.074;15.404;2023-06-10T01:28:44;8.75;;;5.20;;
80536;SDS011;69867;47.074;15.404;2023-06-10T01:33:55;9.95;;;5.05;;
80536;SDS011;69867;47.074;15.404;2023-06-10T01:36:21;10.82;;;4.72;;
80536;SDS011;69867;47.074;15.404;2023-06-10T01:38:48;12.63;;;5.13;;
80536;SDS011;69867;47.074;15.404;2023-06-10T01:41:17;12.32;;;6.07;;
80536;SDS011;69867;47.074;15.404;2023-06-10T01:43:44;11.63;;;5.40;;
80536;SDS011;69867;47.074;15.404;2023-06-10T01:46:10;8.63;;;5.20;;
80536;SDS011;69867;47.074;15.404;2023-06-10T01:48:36;9.07;;;5.13;;
80536;SDS011;69867;47.074;15.404;2023-06-10T01:51:02;8.07;;;5.22;;
80536;SDS011;69867;47.074;15.404;2023-06-10T01:53:28;7.70;;;5.07;;
80536;SDS011;69867;47.074;15.404;2023-06-10T01:55:53;9.75;;;5.60;;
80536;SDS011;69867;47.074;15.404;2023-06-10T01:58:19;11.43;;;5.75;;
80536;SDS011;69867;47.074;15.404;2023-06-10T02:00:44;9.88;;;5.43;;
80536;SDS011;69867;47.074;15.404;2023-06-10T02:03:10;12.35;;;5.35;;
80536;SDS011;69867;47.074;15.404;2023-06-10T02:05:35;19.83;;;6.25;;
80536;SDS011;69867;47.074;15.404;2023-06-10T02:08:00;17.23;;;5.30;;
80536;SDS011;69867;47.074;15.404;2023-06-10T02:10:26;18.05;;;5.82;;
80536;SDS011;69867;47.074;15.404;2023-06-10T02:12:51;16.30;;;5.60;;
80536;SDS011;69867;47.074;15.404;2023-06-10T02:15:16;9.77;;;5.45;;
80536;SDS011;69867;47.074;15.404;2023-06-10T02:17:42;12.73;;;5.78;;
80536;SDS011;69867;47.074;15.404;2023-06-10T02:20:07;11.43;;;5.80;;
80536;SDS011;69867;47.074;15.404;2023-06-10T02:22:33;15.82;;;5.97;;
80536;SDS011;69867;47.074;15.404;2023-06-10T02:24:58;16.83;;;6.30;;
80536;SDS011;69867;47.074;15.404;2023-06-10T02:27:24;14.60;;;6.05;;
80536;SDS011;69867;47.074;15.404;2023-06-10T02:29:49;16.55;;;6.07;;
80536;SDS011;69867;47.074;15.404;2023-06-10T02:32:16;27.70;;;6.50;;
80536;SDS011;69867;47.074;15.404;2023-06-10T02:34:42;21.92;;;6.30;;
80536;SDS011;69867;47.074;15.404;2023-06-10T02:37:07;16.95;;;6.10;;
80536;SDS011;69867;47.074;15.404;2023-06-10T02:39:32;8.65;;;5.68;;
80536;SDS011;69867;47.074;15.404;2023-06-10T02:41:58;10.50;;;5.95;;
80536;SDS011;69867;47.074;15.404;2023-06-10T02:44:23;12.52;;;5.90;;
80536;SDS011;69867;47.074;15.404;2023-06-10T02:46:48;12.75;;;6.25;;
80536;SDS011;69867;47.074;15.404;2023-06-10T02:49:14;14.52;;;6.07;;
80536;SDS011;69867;47.074;15.404;2023-06-10T02:51:39;14.85;;;5.95;;
80536;SDS011;69867;47.074;15.404;2023-06-10T02:54:04;14.70;;;5.72;;
80536;SDS011;69867;47.074;15.404;2023-06-10T02:56:30;14.50;;;5.80;;
80536;SDS011;69867;47.074;15.404;2023-06-10T02:58:55;15.73;;;5.88;;
80536;SDS011;69867;47.074;15.404;2023-06-10T03:01:21;13.88;;;5.38;;
80536;SDS011;69867;47.074;15.404;2023-06-10T03:03:46;10.02;;;5.30;;
80536;SDS011;69867;47.074;15.404;2023-06-10T03:06:12;12.60;;;6.57;;
80536;SDS011;69867;47.074;15.404;2023-06-10T03:08:38;11.35;;;5.57;;
80536;SDS011;69867;47.074;15.404;2023-06-10T03:11:04;14.13;;;5.93;;
80536;SDS011;69867;47.074;15.404;2023-06-10T03:13:29;17.65;;;6.00;;
80536;SDS011;69867;47.074;15.404;2023-06-10T03:15:55;12.48;;;6.03;;
80536;SDS011;69867;47.074;15.404;2023-06-10T03:18:21;17.88;;;5.28;;
80536;SDS011;69867;47.074;15.404;2023-06-10T03:20:46;13.70;;;5.38;;
80536;SDS011;69867;47.074;15.404;2023-06-10T03:23:11;12.07;;;5.28;;
80536;SDS011;69867;47.074;15.404;2023-06-10T03:25:37;15.35;;;5.63;;
80536;SDS011;69867;47.074;15.404;2023-06-10T03:28:02;11.23;;;5.45;;
80536;SDS011;69867;47.074;15.404;2023-06-10T03:30:27;11.27;;;6.03;;
80536;SDS011;69867;47.074;15.404;2023-06-10T03:32:53;12.02;;;6.15;;
80536;SDS011;69867;47.074;15.404;2023-06-10T03:35:18;16.02;;;5.80;;
80536;SDS011;69867;47.074;15.404;2023-06-10T03:37:44;12.45;;;5.47;;
80536;SDS011;69867;47.074;15.404;2023-06-10T03:40:09;10.98;;;5.55;;
80536;SDS011;69867;47.074;15.404;2023-06-10T03:42:34;11.95;;;6.45;;
80536;SDS011;69867;47.074;15.404;2023-06-10T03:45:00;13.25;;;7.70;;
80536;SDS011;69867;47.074;15.404;2023-06-10T03:47:26;13.13;;;6.90;;
80536;SDS011;69867;47.074;15.404;2023-06-10T03:49:51;14.98;;;6.50;;
80536;SDS011;69867;47.074;15.404;2023-06-10T03:52:17;14.73;;;6.93;;
80536;SDS011;69867;47.074;15.404;2023-06-10T03:54:42;15.88;;;7.13;;
80536;SDS011;69867;47.074;15.404;2023-06-10T03:57:08;17.48;;;7.30;;
80536;SDS011;69867;47.074;15.404;2023-06-10T03:59:33;17.77;;;7.25;;
80536;SDS011;69867;47.074;15.404;2023-06-10T04:01:58;17.45;;;7.55;;
80536;SDS011;69867;47.074;15.404;2023-06-10T04:04:24;20.60;;;7.65;;
80536;SDS011;69867;47.074;15.404;2023-06-10T04:06:49;22.67;;;8.10;;
80536;SDS011;69867;47.074;15.404;2023-06-10T04:09:14;17.20;;;7.97;;
80536;SDS011;69867;47.074;15.404;2023-06-10T04:11:40;19.98;;;8.20;;
80536;SDS011;69867;47.074;15.404;2023-06-10T04:14:05;16.77;;;7.68;;
80536;SDS011;69867;47.074;15.404;2023-06-10T04:16:31;16.55;;;9.30;;
80536;SDS011;69867;47.074;15.404;2023-06-10T04:18:56;15.32;;;9.13;;
80536;SDS011;69867;47.074;15.404;2023-06-10T04:21:21;14.20;;;8.40;;
80536;SDS011;69867;47.074;15.404;2023-06-10T04:23:47;17.20;;;7.90;;
80536;SDS011;69867;47.074;15.404;2023-06-10T04:26:12;12.55;;;6.95;;
80536;SDS011;69867;47.074;15.404;2023-06-10T04:28:38;11.60;;;7.53;;
80536;SDS011;69867;47.074;15.404;2023-06-10T04:31:03;14.50;;;6.97;;
80536;SDS011;69867;47.074;15.404;2023-06-10T04:33:29;10.93;;;6.97;;
80536;SDS011;69867;47.074;15.404;2023-06-10T04:35:57;13.13;;;6.30;;
80536;SDS011;69867;47.074;15.404;2023-06-10T04:38:22;13.20;;;6.47;;
80536;SDS011;69867;47.074;15.404;2023-06-10T04:40:47;12.65;;;6.68;;
80536;SDS011;69867;47.074;15.404;2023-06-10T04:43:13;11.20;;;6.57;;
80536;SDS011;69867;47.074;15.404;2023-06-10T04:45:38;13.45;;;6.07;;
80536;SDS011;69867;47.074;15.404;2023-06-10T04:48:04;13.55;;;6.43;;
80536;SDS011;69867;47.074;15.404;2023-06-10T04:50:29;12.77;;;6.75;;
80536;SDS011;69867;47.074;15.404;2023-06-10T04:52:55;10.13;;;5.90;;
80536;SDS011;69867;47.074;15.404;2023-06-10T04:55:20;10.23;;;5.93;;
80536;SDS011;69867;47.074;15.404;2023-06-10T04:57:45;11.88;;;5.28;;
80536;SDS011;69867;47.074;15.404;2023-06-10T05:00:11;11.90;;;6.05;;
80536;SDS011;69867;47.074;15.404;2023-06-10T05:02:36;12.93;;;6.60;;
80536;SDS011;69867;47.074;15.404;2023-06-10T05:05:01;16.35;;;6.93;;
80536;SDS011;69867;47.074;15.404;2023-06-10T05:07:27;14.25;;;5.72;;
80536;SDS011;69867;47.074;15.404;2023-06-10T05:09:52;13.90;;;6.15;;
80536;SDS011;69867;47.074;15.404;2023-06-10T05:12:18;15.32;;;5.90;;
80536;SDS011;69867;47.074;15.404;2023-06-10T05:14:43;10.60;;;5.90;;
80536;SDS011;69867;47.074;15.404;2023-06-10T05:17:08;14.20;;;6.18;;
80536;SDS011;69867;47.074;15.404;2023-06-10T05:19:34;11.63;;;5.75;;
80536;SDS011;69867;47.074;15.404;2023-06-10T05:21:59;13.07;;;5.47;;
80536;SDS011;69867;47.074;15.404;2023-06-10T05:24:24;14.15;;;5.63;;
80536;SDS011;69867;47.074;15.404;2023-06-10T05:26:50;11.02;;;6.78;;
80536;SDS011;69867;47.074;15.404;2023-06-10T05:29:15;15.60;;;6.47;;
80536;SDS011;69867;47.074;15.404;2023-06-10T05:31:41;12.95;;;5.53;;
80536;SDS011;69867;47.074;15.404;2023-06-10T05:34:07;19.10;;;5.80;;
80536;SDS011;69867;47.074;15.404;2023-06-10T05:36:32;16.80;;;6.90;;
80536;SDS011;69867;47.074;15.404;2023-06-10T05:38:57;15.85;;;6.90;;
80536;SDS011;69867;47.074;15.404;2023-06-10T05:41:23;13.20;;;6.28;;
80536;SDS011;69867;47.074;15.404;2023-06-10T05:43:48;11.27;;;5.70;;
80536;SDS011;69867;47.074;15.404;2023-06-10T05:46:13;13.43;;;5.88;;
80536;SDS011;69867;47.074;15.404;2023-06-10T05:48:39;15.35;;;6.20;;
80536;SDS011;69867;47.074;15.404;2023-06-10T05:51:04;16.02;;;6.43;;
80536;SDS011;69867;47.074;15.404;2023-06-10T05:53:29;14.23;;;5.93;;
80536;SDS011;69867;47.074;15.404;2023-06-10T05:55:55;12.18;;;5.32;;
80536;SDS011;69867;47.074;15.404;2023-06-10T05:58:21;11.77;;;5.43;;
80536;SDS011;69867;47.074;15.404;2023-06-10T06:00:46;12.40;;;5.40;;
80536;SDS011;69867;47.074;15.404;2023-06-10T06:03:11;12.55;;;5.88;;
80536;SDS011;69867;47.074;15.404;2023-06-10T06:05:37;9.90;;;5.18;;
80536;SDS011;69867;47.074;15.404;2023-06-10T06:08:03;13.00;;;5.93;;
80536;SDS011;69867;47.074;15.404;2023-06-10T06:10:31;14.70;;;5.82;;
80536;SDS011;69867;47.074;15.404;2023-06-10T06:12:57;9.57;;;5.57;;
80536;SDS011;69867;47.074;15.404;2023-06-10T06:15:22;11.65;;;5.60;;
80536;SDS011;69867;47.074;15.404;2023-06-10T06:17:48;9.35;;;5.82;;
80536;SDS011;69867;47.074;15.404;2023-06-10T06:20:13;14.18;;;5.97;;
80536;SDS011;69867;47.074;15.404;2023-06-10T06:22:38;14.70;;;5.55;;
80536;SDS011;69867;47.074;15.404;2023-06-10T06:25:04;12.65;;;5.55;;
80536;SDS011;69867;47.074;15.404;2023-06-10T06:27:30;12.88;;;5.35;;
80536;SDS011;69867;47.074;15.404;2023-06-10T06:29:56;12.80;;;6.03;;
80536;SDS011;69867;47.074;15.404;2023-06-10T06:32:21;7.85;;;5.18;;
80536;SDS011;69867;47.074;15.404;2023-06-10T06:34:47;12.80;;;6.13;;
80536;SDS011;69867;47.074;15.404;2023-06-10T06:37:12;13.38;;;5.53;;
80536;SDS011;69867;47.074;15.404;2023-06-10T06:39:37;7.60;;;5.32;;
80536;SDS011;69867;47.074;15.404;2023-06-10T06:42:03;8.13;;;5.18;;
80536;SDS011;69867;47.074;15.404;2023-06-10T06:44:28;8.18;;;5.60;;
80536;SDS011;69867;47.074;15.404;2023-06-10T06:46:54;8.77;;;6.68;;
80536;SDS011;69867;47.074;15.404;2023-06-10T06:49:19;11.75;;;5.57;;
80536;SDS011;69867;47.074;15.404;2023-06-10T06:51:44;14.00;;;5.00;;
80536;SDS011;69867;47.074;15.404;2023-06-10T06:54:10;15.77;;;5.32;;
80536;SDS011;69867;47.074;15.404;2023-06-10T06:56:35;10.82;;;5.50;;
80536;SDS011;69867;47.074;15.404;2023-06-10T06:59:00;9.85;;;5.60;;
80536;SDS011;69867;47.074;15.404;2023-06-10T07:01:26;10.40;;;5.30;;
80536;SDS011;69867;47.074;15.404;2023-06-10T07:03:51;12.82;;;5.63;;
80536;SDS011;69867;47.074;15.404;2023-06-10T07:06:16;12.52;;;5.35;;
80536;SDS011;69867;47.074;15.404;2023-06-10T07:08:42;10.38;;;5.35;;
80536;SDS011;69867;47.074;15.404;2023-06-10T07:11:07;12.05;;;5.65;;
80536;SDS011;69867;47.074;15.404;2023-06-10T07:13:32;11.02;;;6.18;;
80536;SDS011;69867;47.074;15.404;2023-06-10T07:15:58;9.70;;;5.28;;
80536;SDS011;69867;47.074;15.404;2023-06-10T07:18:23;10.50;;;6.38;;
80536;SDS011;69867;47.074;15.404;2023-06-10T07:20:48;10.65;;;6.22;;
80536;SDS011;69867;47.074;15.404;2023-06-10T07:23:14;10.88;;;6.72;;
80536;SDS011;69867;47.074;15.404;2023-06-10T07:25:40;13.10;;;6.63;;
80536;SDS011;69867;47.074;15.404;2023-06-10T07:28:06;12.95;;;5.82;;
80536;SDS011;69867;47.074;15.404;2023-06-10T07:30:31;12.13;;;5.82;;
80536;SDS011;69867;47.074;15.404;2023-06-10T07:32:57;9.20;;;6.03;;
80536;SDS011;69867;47.074;15.404;2023-06-10T07:35:22;9.82;;;5.93;;
80536;SDS011;69867;47.074;15.404;2023-06-10T07:37:48;11.40;;;6.60;;
80536;SDS011;69867;47.074;15.404;2023-06-10T07:40:13;10.40;;;6.97;;
80536;SDS011;69867;47.074;15.404;2023-06-10T07:42:38;10.55;;;6.47;;
80536;SDS011;69867;47.074;15.404;2023-06-10T07:45:04;9.85;;;6.55;;
80536;SDS011;69867;47.074;15.404;2023-06-10T07:47:30;11.15;;;6.90;;
80536;SDS011;69867;47.074;15.404;2023-06-10T07:49:56;15.38;;;6.95;;
80536;SDS011;69867;47.074;15.404;2023-06-10T07:52:21;15.85;;;6.10;;
80536;SDS011;69867;47.074;15.404;2023-06-10T07:54:46;13.98;;;6.10;;
80536;SDS011;69867;47.074;15.404;2023-06-10T07:57:12;14.73;;;6.95;;
80536;SDS011;69867;47.074;15.404;2023-06-10T07:59:37;15.02;;;6.28;;
80536;SDS011;69867;47.074;15.404;2023-06-10T08:02:03;16.83;;;6.20;;
80536;SDS011;69867;47.074;15.404;2023-06-10T08:04:29;14.68;;;6.10;;
80536;SDS011;69867;47.074;15.404;2023-06-10T08:06:54;12.02;;;6.00;;
80536;SDS011;69867;47.074;15.404;2023-06-10T08:09:20;14.48;;;6.28;;
80536;SDS011;69867;47.074;15.404;2023-06-10T08:11:46;12.70;;;6.00;;
80536;SDS011;69867;47.074;15.404;2023-06-10T08:14:11;10.43;;;6.05;;
80536;SDS011;69867;47.074;15.404;2023-06-10T08:16:37;10.25;;;6.25;;
80536;SDS011;69867;47.074;15.404;2023-06-10T08:19:02;11.95;;;6.15;;
80536;SDS011;69867;47.074;15.404;2023-06-10T08:21:27;12.82;;;6.40;;
80536;SDS011;69867;47.074;15.404;2023-06-10T08:23:53;12.73;;;5.97;;
80536;SDS011;69867;47.074;15.404;2023-06-10T08:26:18;15.45;;;6.75;;
80536;SDS011;69867;47.074;15.404;2023-06-10T08:28:43;10.15;;;6.88;;
80536;SDS011;69867;47.074;15.404;2023-06-10T08:31:09;9.45;;;6.10;;
80536;SDS011;69867;47.074;15.404;2023-06-10T08:33:34;10.88;;;5.90;;
80536;SDS011;69867;47.074;15.404;2023-06-10T08:35:59;11.73;;;7.03;;
80536;SDS011;69867;47.074;15.404;2023-06-10T08:38:25;12.45;;;7.05;;
80536;SDS011;69867;47.074;15.404;2023-06-10T08:40:50;9.57;;;8.18;;
80536;SDS011;69867;47.074;15.404;2023-06-10T08:45:59;12.32;;;8.18;;
80536;SDS011;69867;47.074;15.404;2023-06-10T08:48:27;10.25;;;6.88;;
80536;SDS011;69867;47.074;15.404;2023-06-10T08:50:55;13.23;;;6.78;;
80536;SDS011;69867;47.074;15.404;2023-06-10T08:53:22;14.30;;;6.93;;
80536;SDS011;69867;47.074;15.404;2023-06-10T08:55:50;12.05;;;7.32;;
80536;SDS011;69867;47.074;15.404;2023-06-10T08:58:16;9.30;;;6.60;;
80536;SDS011;69867;47.074;15.404;2023-06-10T09:00:42;9.88;;;7.13;;
80536;SDS011;69867;47.074;15.404;2023-06-10T09:03:08;12.43;;;7.65;;
80536;SDS011;69867;47.074;15.404;2023-06-10T09:05:34;11.45;;;7.72;;
80536;SDS011;69867;47.074;15.404;2023-06-10T09:08:00;11.43;;;6.75;;
80536;SDS011;69867;47.074;15.404;2023-06-10T09:10:26;10.50;;;7.28;;
80536;SDS011;69867;47.074;15.404;2023-06-10T09:12:52;10.25;;;7.07;;
80536;SDS011;69867;47.074;15.404;2023-06-10T09:15:17;11.27;;;7.00;;
80536;SDS011;69867;47.074;15.404;2023-06-10T09:17:43;12.35;;;6.95;;
80536;SDS011;69867;47.074;15.404;2023-06-10T09:20:08;9.32;;;6.40;;
80536;SDS011;69867;47.074;15.404;2023-06-10T09:22:34;10.57;;;6.63;;
80536;SDS011;69867;47.074;15.404;2023-06-10T09:25:05;10.57;;;6.30;;
80536;SDS011;69867;47.074;15.404;2023-06-10T09:27:32;10.57;;;7.05;;
80536;SDS011;69867;47.074;15.404;2023-06-10T09:29:57;9.70;;;6.55;;
80536;SDS011;69867;47.074;15.404;2023-06-10T09:32:22;12.63;;;6.57;;
80536;SDS011;69867;47.074;15.404;2023-06-10T09:34:49;9.93;;;5.93;;
80536;SDS011;69867;47.074;15.404;2023-06-10T09:37:19;10.52;;;6.57;;
80536;SDS011;69867;47.074;15.404;2023-06-10T09:40:00;12.43;;;6.57;;
80536;SDS011;69867;47.074;15.404;2023-06-10T09:42:30;11.18;;;7.05;;
80536;SDS011;69867;47.074;15.404;2023-06-10T09:44:57;11.00;;;6.72;;
80536;SDS011;69867;47.074;15.404;2023-06-10T09:47:23;10.52;;;6.65;;
80536;SDS011;69867;47.074;15.404;2023-06-10T09:49:48;12.73;;;7.22;;
80536;SDS011;69867;47.074;15.404;2023-06-10T09:52:17;13.10;;;6.53;;
80536;SDS011;69867;47.074;15.404;2023-06-10T09:54:46;13.07;;;6.13;;
80536;SDS011;69867;47.074;15.404;2023-06-10T09:57:12;14.73;;;7.72;;
80536;SDS011;69867;47.074;15.404;2023-06-10T09:59:37;13.57;;;6.85;;
80536;SDS011;69867;47.074;15.404;2023-06-10T10:02:03;16.67;;;6.78;;
80536;SDS011;69867;47.074;15.404;2023-06-10T10:04:29;18.15;;;10.43;;
80536;SDS011;69867;47.074;15.404;2023-06-10T10:06:55;15.82;;;8.93;;
80536;SDS011;69867;47.074;15.404;2023-06-10T10:09:20;10.13;;;6.75;;
80536;SDS011;69867;47.074;15.404;2023-06-10T10:11:45;10.55;;;6.72;;
80536;SDS011;69867;47.074;15.404;2023-06-10T10:14:13;12.57;;;7.05;;
80536;SDS011;69867;47.074;15.404;2023-06-10T10:16:40;12.82;;;6.30;;
80536;SDS011;69867;47.074;15.404;2023-06-10T10:22:18;9.95;;;6.47;;
80536;SDS011;69867;47.074;15.404;2023-06-10T10:24:50;9.65;;;6.22;;
80536;SDS011;69867;47.074;15.404;2023-06-10T10:27:18;13.32;;;6.68;;
80536;SDS011;69867;47.074;15.404;2023-06-10T10:29:47;13.02;;;7.18;;
80536;SDS011;69867;47.074;15.404;2023-06-10T10:32:17;12.80;;;7.45;;
80536;SDS011;69867;47.074;15.404;2023-06-10T10:34:46;9.77;;;6.45;;
80536;SDS011;69867;47.074;15.404;2023-06-10T10:37:17;12.02;;;6.30;;
80536;SDS011;69867;47.074;15.404;2023-06-10T10:39:42;9.85;;;6.00;;
80536;SDS011;69867;47.074;15.404;2023-06-10T10:42:08;7.65;;;5.57;;
80536;SDS011;69867;47.074;15.404;2023-06-10T10:44:34;9.50;;;6.10;;
80536;SDS011;69867;47.074;15.404;2023-06-10T10:47:02;7.88;;;5.45;;
80536;SDS011;69867;47.074;15.404;2023-06-10T10:49:28;7.25;;;5.68;;
80536;SDS011;69867;47.074;15.404;2023-06-10T10:54:29;13.55;;;6.70;;
80536;SDS011;69867;47.074;15.404;2023-06-10T10:57:15;12.05;;;6.32;;
80536;SDS011;69867;47.074;15.404;2023-06-10T10:59:58;10.82;;;5.75;;
80536;SDS011;69867;47.074;15.404;2023-06-10T11:05:01;9.20;;;6.30;;
80536;SDS011;69867;47.074;15.404;2023-06-10T11:07:26;10.45;;;6.43;;
80536;SDS011;69867;47.074;15.404;2023-06-10T11:09:59;8.45;;;5.72;;
80536;SDS011;69867;47.074;15.404;2023-06-10T11:15:07;9.00;;;6.15;;
80536;SDS011;69867;47.074;15.404;2023-06-10T11:17:33;8.40;;;6.07;;
80536;SDS011;69867;47.074;15.404;2023-06-10T11:19:58;9.00;;;5.80;;
80536;SDS011;69867;47.074;15.404;2023-06-10T11:22:24;7.80;;;5.82;;
80536;SDS011;69867;47.074;15.404;2023-06-10T11:24:50;12.25;;;6.80;;
80536;SDS011;69867;47.074;15.404;2023-06-10T11:32:23;14.93;;;7.18;;
80536;SDS011;69867;47.074;15.404;2023-06-10T11:34:53;15.07;;;6.95;;
80536;SDS011;69867;47.074;15.404;2023-06-10T11:37:18;11.05;;;6.95;;
80536;SDS011;69867;47.074;15.404;2023-06-10T11:39:43;10.40;;;6.22;;
80536;SDS011;69867;47.074;15.404;2023-06-10T11:42:10;9.95;;;5.68;;
80536;SDS011;69867;47.074;15.404;2023-06-10T11:44:36;11.23;;;5.93;;
80536;SDS011;69867;47.074;15.404;2023-06-10T11:47:01;9.55;;;6.45;;
80536;SDS011;69867;47.074;15.404;2023-06-10T11:49:26;7.78;;;5.90;;
80536;SDS011;69867;47.074;15.404;2023-06-10T11:51:52;8.90;;;5.90;;
80536;SDS011;69867;47.074;15.404;2023-06-10T11:54:17;6.90;;;5.45;;
80536;SDS011;69867;47.074;15.404;2023-06-10T11:56:43;7.65;;;6.03;;
80536;SDS011;69867;47.074;15.404;2023-06-10T11:59:08;9.80;;;6.13;;
80536;SDS011;69867;47.074;15.404;2023-06-10T12:01:34;10.88;;;6.18;;
80536;SDS011;69867;47.074;15.404;2023-06-10T12:06:43;7.88;;;5.70;;
80536;SDS011;69867;47.074;15.404;2023-06-10T12:09:13;9.65;;;5.53;;
80536;SDS011;69867;47.074;15.404;2023-06-10T12:11:39;9.80;;;5.25;;
80536;SDS011;69867;47.074;15.404;2023-06-10T12:14:04;11.77;;;5.35;;
80536;SDS011;69867;47.074;15.404;2023-06-10T12:16:30;10.38;;;5.30;;
80536;SDS011;69867;47.074;15.404;2023-06-10T12:19:00;9.23;;;5.55;;
80536;SDS011;69867;47.074;15.404;2023-06-10T12:21:26;9.45;;;5.40;;
80536;SDS011;69867;47.074;15.404;2023-06-10T12:24:05;7.25;;;5.13;;
80536;SDS011;69867;47.074;15.404;2023-06-10T12:26:36;8.75;;;5.18;;
80536;SDS011;69867;47.074;15.404;2023-06-10T12:29:15;10.65;;;5.90;;
80536;SDS011;69867;47.074;15.404;2023-06-10T12:34:19;8.63;;;5.18;;
80536;SDS011;69867;47.074;15.404;2023-06-10T12:36:48;7.78;;;5.20;;
80536;SDS011;69867;47.074;15.404;2023-06-10T12:39:14;9.98;;;4.90;;
80536;SDS011;69867;47.074;15.404;2023-06-10T12:41:39;5.80;;;4.68;;
80536;SDS011;69867;47.074;15.404;2023-06-10T12:44:05;9.75;;;5.50;;
80536;SDS011;69867;47.074;15.404;2023-06-10T12:46:36;9.85;;;4.22;;
80536;SDS011;69867;47.074;15.404;2023-06-10T12:49:02;7.25;;;4.50;;
80536;SDS011;69867;47.074;15.404;2023-06-10T12:51:27;8.40;;;4.47;;
80536;SDS011;69867;47.074;15.404;2023-06-10T12:53:53;7.80;;;4.97;;
80536;SDS011;69867;47.074;15.404;2023-06-10T12:56:18;7.18;;;4.60;;
80536;SDS011;69867;47.074;15.404;2023-06-10T12:58:43;5.15;;;3.22;;
80536;SDS011;69867;47.074;15.404;2023-06-10T13:01:09;6.82;;;3.20;;
80536;SDS011;69867;47.074;15.404;2023-06-10T13:03:34;8.00;;;3.38;;
80536;SDS011;69867;47.074;15.404;2023-06-10T13:05:59;4.50;;;2.70;;
80536;SDS011;69867;47.074;15.404;2023-06-10T13:08:25;5.70;;;2.95;;
80536;SDS011;69867;47.074;15.404;2023-06-10T13:10:50;5.15;;;3.17;;
80536;SDS011;69867;47.074;15.404;2023-06-10T13:13:15;4.85;;;2.72;;
80536;SDS011;69867;47.074;15.404;2023-06-10T13:15:41;6.65;;;3.60;;
80536;SDS011;69867;47.074;15.404;2023-06-10T13:18:06;9.38;;;4.68;;
80536;SDS011;69867;47.074;15.404;2023-06-10T13:20:32;7.85;;;3.85;;
80536;SDS011;69867;47.074;15.404;2023-06-10T13:22:57;8.82;;;3.80;;
80536;SDS011;69867;47.074;15.404;2023-06-10T13:25:22;6.95;;;3.55;;
80536;SDS011;69867;47.074;15.404;2023-06-10T13:27:48;6.47;;;3.33;;
80536;SDS011;69867;47.074;15.404;2023-06-10T13:30:13;7.00;;;3.65;;
80536;SDS011;69867;47.074;15.404;2023-06-10T13:32:39;7.32;;;3.90;;
80536;SDS011;69867;47.074;15.404;2023-06-10T13:35:04;5.50;;;3.83;;
80536;SDS011;69867;47.074;15.404;2023-06-10T13:37:30;7.07;;;4.40;;
80536;SDS011;69867;47.074;15.404;2023-06-10T13:39:55;6.30;;;4.22;;
80536;SDS011;69867;47.074;15.404;2023-06-10T13:42:21;6.18;;;4.18;;
80536;SDS011;69867;47.074;15.404;2023-06-10T13:44:46;8.63;;;4.72;;
80536;SDS011;69867;47.074;15.404;2023-06-10T13:47:13;8.90;;;4.60;;
80536;SDS011;69867;47.074;15.404;2023-06-10T13:49:38;5.70;;;4.35;;
80536;SDS011;69867;47.074;15.404;2023-06-10T13:52:04;8.80;;;5.38;;
80536;SDS011;69867;47.074;15.404;2023-06-10T13:54:30;6.60;;;4.80;;
80536;SDS011;69867;47.074;15.404;2023-06-10T13:56:55;6.22;;;4.80;;
80536;SDS011;69867;47.074;15.404;2023-06-10T13:59:20;6.82;;;4.25;;
80536;SDS011;69867;47.074;15.404;2023-06-10T14:01:46;8.52;;;4.25;;
80536;SDS011;69867;47.074;15.404;2023-06-10T14:04:12;7.68;;;4.30;;
80536;SDS011;69867;47.074;15.404;2023-06-10T14:06:37;9.10;;;4.25;;
80536;SDS011;69867;47.074;15.404;2023-06-10T14:09:03;9.57;;;3.97;;
80536;SDS011;69867;47.074;15.404;2023-06-10T14:11:28;8.98;;;4.80;;
80536;SDS011;69867;47.074;15.404;2023-06-10T14:13:54;9.23;;;4.95;;
80536;SDS011;69867;47.074;15.404;2023-06-10T14:16:20;7.53;;;4.53;;
80536;SDS011;69867;47.074;15.404;2023-06-10T14:18:45;8.60;;;4.47;;
80536;SDS011;69867;47.074;15.404;2023-06-10T14:21:10;7.13;;;4.05;;
80536;SDS011;69867;47.074;15.404;2023-06-10T14:23:36;8.55;;;4.25;;
80536;SDS011;69867;47.074;15.404;2023-06-10T14:26:01;7.80;;;4.57;;
80536;SDS011;69867;47.074;15.404;2023-06-10T14:28:27;8.70;;;4.43;;
80536;SDS011;69867;47.074;15.404;2023-06-10T14:30:52;6.95;;;4.13;;
80536;SDS011;69867;47.074;15.404;2023-06-10T14:33:17;7.78;;;4.75;;
80536;SDS011;69867;47.074;15.404;2023-06-10T14:35:43;8.15;;;4.03;;
80536;SDS011;69867;47.074;15.404;2023-06-10T14:38:08;9.85;;;3.70;;
80536;SDS011;69867;47.074;15.404;2023-06-10T14:40:34;8.07;;;3.72;;
80536;SDS011;69867;47.074;15.404;2023-06-10T14:42:59;11.70;;;3.78;;
80536;SDS011;69867;47.074;15.404;2023-06-10T14:45:24;7.03;;;4.18;;